sensor_id;sensor_type;location;lat;lon;timestamp;temperature;humidity
10276;DHT22;5183;51.190;6.820;2023-11-19T00:00:30;10.00;99.90
10276;DHT22;5183;51.190;6.820;2023-11-19T00:02:57;10.10;99.90
10276;DHT22;5183;51.190;6.820;2023-11-19T00:05:24;10.10;99.90
10276;DHT22;5183;51.190;6.820;2023-11-19T00:07:52;10.10;99.90
10276;DHT22;5183;51.190;6.820;2023-11-19T00:10:19;10.20;99.90
10276;DHT22;5183;51.190;6.820;2023-11-19T00:12:47;10.20;99.90
10276;DHT22;5183;51.190;6.820;2023-11-19T00:15:14;10.30;99.90
10276;DHT22;5183;51.190;6.820;2023-11-19T00:17:42;10.30;99.90
10276;DHT22;5183;51.190;6.820;2023-11-19T00:20:11;10.40;99.90
10276;DHT22;5183;51.190;6.820;2023-11-19T00:22:38;10.50;99.90
10276;DHT22;5183;51.190;6.820;2023-11-19T00:25:07;10.50;99.90
10276;DHT22;5183;51.190;6.820;2023-11-19T00:27:34;10.60;99.90
10276;DHT22;5183;51.190;6.820;2023-11-19T00:30:01;10.60;99.90
10276;DHT22;5183;51.190;6.820;2023-11-19T00:32:31;10.60;99.90
10276;DHT22;5183;51.190;6.820;2023-11-19T00:34:57;10.50;99.90
10276;DHT22;5183;51.190;6.820;2023-11-19T00:37:24;10.60;99.90
10276;DHT22;5183;51.190;6.820;2023-11-19T00:39:51;10.60;99.90
10276;DHT22;5183;51.190;6.820;2023-11-19T00:42:19;10.60;99.90
10276;DHT22;5183;51.190;6.820;2023-11-19T00:44:47;10.60;99.90
10276;DHT22;5183;51.190;6.820;2023-11-19T00:47:14;10.80;99.90
10276;DHT22;5183;51.190;6.820;2023-11-19T00:49:40;10.80;99.90
10276;DHT22;5183;51.190;6.820;2023-11-19T00:52:08;10.90;99.90
10276;DHT22;5183;51.190;6.820;2023-11-19T00:54:35;11.00;99.90
10276;DHT22;5183;51.190;6.820;2023-11-19T00:57:02;11.00;99.90
10276;DHT22;5183;51.190;6.820;2023-11-19T00:59:30;11.20;99.90
10276;DHT22;5183;51.190;6.820;2023-11-19T01:01:58;11.30;99.90
10276;DHT22;5183;51.190;6.820;2023-11-19T01:04:28;11.40;99.90
10276;DHT22;5183;51.190;6.820;2023-11-19T01:06:55;11.50;99.90
10276;DHT22;5183;51.190;6.820;2023-11-19T01:09:22;11.60;99.90
10276;DHT22;5183;51.190;6.820;2023-11-19T01:11:48;11.70;99.90
10276;DHT22;5183;51.190;6.820;2023-11-19T01:14:15;11.70;99.90
10276;DHT22;5183;51.190;6.820;2023-11-19T01:16:44;11.80;99.90
10276;DHT22;5183;51.190;6.820;2023-11-19T01:19:11;11.80;99.90
10276;DHT22;5183;51.190;6.820;2023-11-19T01:21:38;11.80;99.90
10276;DHT22;5183;51.190;6.820;2023-11-19T01:24:06;11.90;99.90
10276;DHT22;5183;51.190;6.820;2023-11-19T01:26:35;11.90;99.90
10276;DHT22;5183;51.190;6.820;2023-11-19T01:29:02;12.00;99.90
10276;DHT22;5183;51.190;6.820;2023-11-19T01:31:30;12.00;99.90
10276;DHT22;5183;51.190;6.820;2023-11-19T01:33:58;12.10;99.90
10276;DHT22;5183;51.190;6.820;2023-11-19T01:36:25;12.10;99.90
10276;DHT22;5183;51.190;6.820;2023-11-19T01:38:52;12.10;99.90
10276;DHT22;5183;51.190;6.820;2023-11-19T01:41:19;12.20;99.90
10276;DHT22;5183;51.190;6.820;2023-11-19T01:43:46;12.20;99.90
10276;DHT22;5183;51.190;6.820;2023-11-19T01:46:13;12.20;99.90
10276;DHT22;5183;51.190;6.820;2023-11-19T01:48:42;12.10;99.90
10276;DHT22;5183;51.190;6.820;2023-11-19T01:51:12;12.20;99.90
10276;DHT22;5183;51.190;6.820;2023-11-19T01:53:43;12.20;99.90
10276;DHT22;5183;51.190;6.820;2023-11-19T01:56:13;12.20;99.90
10276;DHT22;5183;51.190;6.820;2023-11-19T01:58:41;12.20;99.90
10276;DHT22;5183;51.190;6.820;2023-11-19T02:01:09;12.20;99.90
10276;DHT22;5183;51.190;6.820;2023-11-19T02:03:36;12.20;99.90
10276;DHT22;5183;51.190;6.820;2023-11-19T02:06:05;12.20;99.90
10276;DHT22;5183;51.190;6.820;2023-11-19T02:08:34;12.20;99.90
10276;DHT22;5183;51.190;6.820;2023-11-19T02:11:01;12.30;99.90
10276;DHT22;5183;51.190;6.820;2023-11-19T02:13:28;12.30;99.90
10276;DHT22;5183;51.190;6.820;2023-11-19T02:15:55;12.20;99.90
10276;DHT22;5183;51.190;6.820;2023-11-19T02:18:22;12.20;99.90
10276;DHT22;5183;51.190;6.820;2023-11-19T02:20:49;12.20;99.90
10276;DHT22;5183;51.190;6.820;2023-11-19T02:23:17;12.20;99.90
10276;DHT22;5183;51.190;6.820;2023-11-19T02:25:58;12.20;99.90
10276;DHT22;5183;51.190;6.820;2023-11-19T02:28:28;12.30;99.90
10276;DHT22;5183;51.190;6.820;2023-11-19T02:30:55;12.30;99.90
10276;DHT22;5183;51.190;6.820;2023-11-19T02:33:22;12.30;99.90
10276;DHT22;5183;51.190;6.820;2023-11-19T02:35:50;12.40;99.90
10276;DHT22;5183;51.190;6.820;2023-11-19T02:38:17;12.40;99.90
10276;DHT22;5183;51.190;6.820;2023-11-19T02:40:44;12.40;99.90
10276;DHT22;5183;51.190;6.820;2023-11-19T02:43:11;12.40;99.90
10276;DHT22;5183;51.190;6.820;2023-11-19T02:45:40;12.40;99.90
10276;DHT22;5183;51.190;6.820;2023-11-19T02:48:07;12.40;99.90
10276;DHT22;5183;51.190;6.820;2023-11-19T02:50:35;12.30;99.90
10276;DHT22;5183;51.190;6.820;2023-11-19T02:53:02;12.40;99.90
10276;DHT22;5183;51.190;6.820;2023-11-19T02:55:29;12.40;99.90
10276;DHT22;5183;51.190;6.820;2023-11-19T02:58:01;12.40;99.90
10276;DHT22;5183;51.190;6.820;2023-11-19T03:00:33;12.30;99.90
10276;DHT22;5183;51.190;6.820;2023-11-19T03:03:04;12.30;99.90
10276;DHT22;5183;51.190;6.820;2023-11-19T03:05:43;12.40;99.90
10276;DHT22;5183;51.190;6.820;2023-11-19T03:08:12;12.40;99.90
10276;DHT22;5183;51.190;6.820;2023-11-19T03:10:39;12.40;99.90
10276;DHT22;5183;51.190;6.820;2023-11-19T03:13:05;12.50;99.90
10276;DHT22;5183;51.190;6.820;2023-11-19T03:15:37;12.50;99.90
10276;DHT22;5183;51.190;6.820;2023-11-19T03:18:05;12.50;99.90
10276;DHT22;5183;51.190;6.820;2023-11-19T03:20:32;12.60;99.90
10276;DHT22;5183;51.190;6.820;2023-11-19T03:22:59;12.60;99.90
10276;DHT22;5183;51.190;6.820;2023-11-19T03:25:27;12.60;99.90
10276;DHT22;5183;51.190;6.820;2023-11-19T03:27:58;12.70;99.90
10276;DHT22;5183;51.190;6.820;2023-11-19T03:30:26;12.60;99.90
10276;DHT22;5183;51.190;6.820;2023-11-19T03:32:54;12.70;99.90
10276;DHT22;5183;51.190;6.820;2023-11-19T03:35:22;12.70;99.90
10276;DHT22;5183;51.190;6.820;2023-11-19T03:37:49;12.70;99.90
10276;DHT22;5183;51.190;6.820;2023-11-19T03:40:16;12.60;99.90
10276;DHT22;5183;51.190;6.820;2023-11-19T03:42:44;12.70;99.90
10276;DHT22;5183;51.190;6.820;2023-11-19T03:45:11;12.70;99.90
10276;DHT22;5183;51.190;6.820;2023-11-19T03:47:38;12.70;99.90
10276;DHT22;5183;51.190;6.820;2023-11-19T03:50:06;12.60;99.90
10276;DHT22;5183;51.190;6.820;2023-11-19T03:52:35;12.70;99.90
10276;DHT22;5183;51.190;6.820;2023-11-19T03:55:02;12.70;99.90
10276;DHT22;5183;51.190;6.820;2023-11-19T03:57:29;12.70;99.90
10276;DHT22;5183;51.190;6.820;2023-11-19T03:59:56;12.80;99.90
10276;DHT22;5183;51.190;6.820;2023-11-19T04:02:24;12.70;99.90
10276;DHT22;5183;51.190;6.820;2023-11-19T04:04:53;12.70;99.90
10276;DHT22;5183;51.190;6.820;2023-11-19T04:07:20;12.70;99.90
10276;DHT22;5183;51.190;6.820;2023-11-19T04:09:48;12.70;99.90
10276;DHT22;5183;51.190;6.820;2023-11-19T04:12:15;12.60;99.90
10276;DHT22;5183;51.190;6.820;2023-11-19T04:14:42;12.60;99.90
10276;DHT22;5183;51.190;6.820;2023-11-19T04:17:09;12.50;99.90
10276;DHT22;5183;51.190;6.820;2023-11-19T04:19:36;12.50;99.90
10276;DHT22;5183;51.190;6.820;2023-11-19T04:22:07;12.40;99.90
10276;DHT22;5183;51.190;6.820;2023-11-19T04:24:34;12.50;99.90
10276;DHT22;5183;51.190;6.820;2023-11-19T04:27:03;12.40;99.90
10276;DHT22;5183;51.190;6.820;2023-11-19T04:29:30;12.40;99.90
10276;DHT22;5183;51.190;6.820;2023-11-19T04:31:57;12.40;99.90
10276;DHT22;5183;51.190;6.820;2023-11-19T04:34:24;12.40;99.90
10276;DHT22;5183;51.190;6.820;2023-11-19T04:36:51;12.40;99.90
10276;DHT22;5183;51.190;6.820;2023-11-19T04:39:18;12.40;99.90
10276;DHT22;5183;51.190;6.820;2023-11-19T04:41:49;12.40;99.90
10276;DHT22;5183;51.190;6.820;2023-11-19T04:44:17;12.30;99.90
10276;DHT22;5183;51.190;6.820;2023-11-19T04:46:44;12.30;99.90
10276;DHT22;5183;51.190;6.820;2023-11-19T04:49:12;12.30;99.90
10276;DHT22;5183;51.190;6.820;2023-11-19T04:51:39;12.20;99.90
10276;DHT22;5183;51.190;6.820;2023-11-19T04:54:07;12.10;99.90
10276;DHT22;5183;51.190;6.820;2023-11-19T04:56:34;12.10;99.90
10276;DHT22;5183;51.190;6.820;2023-11-19T04:59:02;12.20;99.90
10276;DHT22;5183;51.190;6.820;2023-11-19T05:01:30;12.20;99.90
10276;DHT22;5183;51.190;6.820;2023-11-19T05:03:57;12.20;99.90
10276;DHT22;5183;51.190;6.820;2023-11-19T05:06:26;12.10;99.90
10276;DHT22;5183;51.190;6.820;2023-11-19T05:08:54;12.10;99.90
10276;DHT22;5183;51.190;6.820;2023-11-19T05:11:21;12.10;99.90
10276;DHT22;5183;51.190;6.820;2023-11-19T05:13:48;12.10;99.90
10276;DHT22;5183;51.190;6.820;2023-11-19T05:16:15;12.10;99.90
10276;DHT22;5183;51.190;6.820;2023-11-19T05:18:44;12.10;99.90
10276;DHT22;5183;51.190;6.820;2023-11-19T05:21:11;12.10;99.90
10276;DHT22;5183;51.190;6.820;2023-11-19T05:23:38;12.20;99.90
10276;DHT22;5183;51.190;6.820;2023-11-19T05:26:05;12.20;99.90
10276;DHT22;5183;51.190;6.820;2023-11-19T05:28:32;12.10;99.90
10276;DHT22;5183;51.190;6.820;2023-11-19T05:30:59;12.10;99.90
10276;DHT22;5183;51.190;6.820;2023-11-19T05:33:26;12.10;99.90
10276;DHT22;5183;51.190;6.820;2023-11-19T05:35:54;12.10;99.90
10276;DHT22;5183;51.190;6.820;2023-11-19T05:38:22;12.10;99.90
10276;DHT22;5183;51.190;6.820;2023-11-19T05:40:49;12.10;99.90
10276;DHT22;5183;51.190;6.820;2023-11-19T05:43:16;12.20;99.90
10276;DHT22;5183;51.190;6.820;2023-11-19T05:45:43;12.30;99.90
10276;DHT22;5183;51.190;6.820;2023-11-19T05:48:10;12.30;99.90
10276;DHT22;5183;51.190;6.820;2023-11-19T05:50:37;12.30;99.90
10276;DHT22;5183;51.190;6.820;2023-11-19T05:53:05;12.20;99.90
10276;DHT22;5183;51.190;6.820;2023-11-19T05:55:35;12.20;99.90
10276;DHT22;5183;51.190;6.820;2023-11-19T05:58:03;12.20;99.90
10276;DHT22;5183;51.190;6.820;2023-11-19T06:00:32;12.20;99.90
10276;DHT22;5183;51.190;6.820;2023-11-19T06:03:00;12.30;99.90
10276;DHT22;5183;51.190;6.820;2023-11-19T06:05:27;12.20;99.90
10276;DHT22;5183;51.190;6.820;2023-11-19T06:07:53;12.20;99.90
10276;DHT22;5183;51.190;6.820;2023-11-19T06:10:22;12.20;99.90
10276;DHT22;5183;51.190;6.820;2023-11-19T06:12:54;12.20;99.90
10276;DHT22;5183;51.190;6.820;2023-11-19T06:15:22;12.20;99.90
10276;DHT22;5183;51.190;6.820;2023-11-19T06:17:49;12.10;99.90
10276;DHT22;5183;51.190;6.820;2023-11-19T06:20:16;12.00;99.90
10276;DHT22;5183;51.190;6.820;2023-11-19T06:22:45;11.90;99.90
10276;DHT22;5183;51.190;6.820;2023-11-19T06:25:12;11.90;99.90
10276;DHT22;5183;51.190;6.820;2023-11-19T06:27:41;11.90;99.90
10276;DHT22;5183;51.190;6.820;2023-11-19T06:30:09;11.90;99.90
10276;DHT22;5183;51.190;6.820;2023-11-19T06:32:37;11.90;99.90
10276;DHT22;5183;51.190;6.820;2023-11-19T06:35:04;12.00;86.20
10276;DHT22;5183;51.190;6.820;2023-11-19T06:37:31;12.00;84.20
10276;DHT22;5183;51.190;6.820;2023-11-19T06:39:58;12.00;93.00
10276;DHT22;5183;51.190;6.820;2023-11-19T06:42:25;11.90;99.90
10276;DHT22;5183;51.190;6.820;2023-11-19T06:44:54;11.80;99.90
10276;DHT22;5183;51.190;6.820;2023-11-19T06:47:22;11.80;99.90
10276;DHT22;5183;51.190;6.820;2023-11-19T06:49:51;11.70;99.90
10276;DHT22;5183;51.190;6.820;2023-11-19T06:52:18;11.60;99.90
10276;DHT22;5183;51.190;6.820;2023-11-19T06:54:45;11.70;99.90
10276;DHT22;5183;51.190;6.820;2023-11-19T06:57:12;11.70;99.90
10276;DHT22;5183;51.190;6.820;2023-11-19T06:59:39;11.70;99.90
10276;DHT22;5183;51.190;6.820;2023-11-19T07:02:07;11.60;99.90
10276;DHT22;5183;51.190;6.820;2023-11-19T07:04:34;11.60;99.90
10276;DHT22;5183;51.190;6.820;2023-11-19T07:07:01;11.60;99.90
10276;DHT22;5183;51.190;6.820;2023-11-19T07:09:28;11.60;99.90
10276;DHT22;5183;51.190;6.820;2023-11-19T07:11:55;11.60;99.90
10276;DHT22;5183;51.190;6.820;2023-11-19T07:14:21;11.60;99.90
10276;DHT22;5183;51.190;6.820;2023-11-19T07:16:49;11.50;99.90
10276;DHT22;5183;51.190;6.820;2023-11-19T07:19:18;11.60;99.90
10276;DHT22;5183;51.190;6.820;2023-11-19T07:21:45;11.50;99.90
10276;DHT22;5183;51.190;6.820;2023-11-19T07:24:11;11.50;99.90
10276;DHT22;5183;51.190;6.820;2023-11-19T07:26:42;11.50;99.90
10276;DHT22;5183;51.190;6.820;2023-11-19T07:29:10;11.50;99.90
10276;DHT22;5183;51.190;6.820;2023-11-19T07:31:36;11.50;99.90
10276;DHT22;5183;51.190;6.820;2023-11-19T07:34:03;11.50;96.90
10276;DHT22;5183;51.190;6.820;2023-11-19T07:36:32;11.50;90.30
10276;DHT22;5183;51.190;6.820;2023-11-19T07:38:59;11.50;90.50
10276;DHT22;5183;51.190;6.820;2023-11-19T07:41:26;11.50;86.60
10276;DHT22;5183;51.190;6.820;2023-11-19T07:43:53;11.50;87.50
10276;DHT22;5183;51.190;6.820;2023-11-19T07:46:20;11.50;62.60
10276;DHT22;5183;51.190;6.820;2023-11-19T07:48:47;11.60;46.80
10276;DHT22;5183;51.190;6.820;2023-11-19T07:51:14;11.60;36.70
10276;DHT22;5183;51.190;6.820;2023-11-19T07:53:43;11.60;38.40
10276;DHT22;5183;51.190;6.820;2023-11-19T07:56:10;11.60;49.40
10276;DHT22;5183;51.190;6.820;2023-11-19T07:58:37;11.60;54.00
10276;DHT22;5183;51.190;6.820;2023-11-19T08:01:05;11.70;41.40
10276;DHT22;5183;51.190;6.820;2023-11-19T08:03:32;11.70;59.90
10276;DHT22;5183;51.190;6.820;2023-11-19T08:05:59;11.70;49.90
10276;DHT22;5183;51.190;6.820;2023-11-19T08:08:26;11.70;51.60
10276;DHT22;5183;51.190;6.820;2023-11-19T08:10:56;11.70;58.90
10276;DHT22;5183;51.190;6.820;2023-11-19T08:13:23;11.70;69.30
10276;DHT22;5183;51.190;6.820;2023-11-19T08:15:50;11.80;47.20
10276;DHT22;5183;51.190;6.820;2023-11-19T08:18:17;11.80;32.90
10276;DHT22;5183;51.190;6.820;2023-11-19T08:20:44;11.90;27.70
10276;DHT22;5183;51.190;6.820;2023-11-19T08:23:14;12.00;26.80
10276;DHT22;5183;51.190;6.820;2023-11-19T08:25:41;12.10;11.40
10276;DHT22;5183;51.190;6.820;2023-11-19T08:28:09;12.20;1.00
10276;DHT22;5183;51.190;6.820;2023-11-19T08:30:36;12.30;1.00
10276;DHT22;5183;51.190;6.820;2023-11-19T08:33:03;12.40;1.00
10276;DHT22;5183;51.190;6.820;2023-11-19T08:35:31;12.40;1.00
10276;DHT22;5183;51.190;6.820;2023-11-19T08:37:58;12.50;1.00
10276;DHT22;5183;51.190;6.820;2023-11-19T08:40:25;12.60;1.00
10276;DHT22;5183;51.190;6.820;2023-11-19T08:42:52;12.60;1.00
10276;DHT22;5183;51.190;6.820;2023-11-19T08:45:21;12.50;1.00
10276;DHT22;5183;51.190;6.820;2023-11-19T08:47:47;12.40;1.00
10276;DHT22;5183;51.190;6.820;2023-11-19T08:50:14;12.40;1.00
10276;DHT22;5183;51.190;6.820;2023-11-19T08:52:41;12.40;1.00
10276;DHT22;5183;51.190;6.820;2023-11-19T08:55:08;12.40;1.00
10276;DHT22;5183;51.190;6.820;2023-11-19T08:57:35;12.40;1.00
10276;DHT22;5183;51.190;6.820;2023-11-19T09:00:03;12.50;1.00
10276;DHT22;5183;51.190;6.820;2023-11-19T09:02:34;12.50;1.00
10276;DHT22;5183;51.190;6.820;2023-11-19T09:05:02;12.40;1.00
10276;DHT22;5183;51.190;6.820;2023-11-19T09:07:29;12.40;1.00
10276;DHT22;5183;51.190;6.820;2023-11-19T09:09:56;12.50;1.00
10276;DHT22;5183;51.190;6.820;2023-11-19T09:12:23;12.50;1.00
10276;DHT22;5183;51.190;6.820;2023-11-19T09:14:50;12.50;1.00
10276;DHT22;5183;51.190;6.820;2023-11-19T09:17:16;12.40;1.00
10276;DHT22;5183;51.190;6.820;2023-11-19T09:19:45;12.50;1.00
10276;DHT22;5183;51.190;6.820;2023-11-19T09:22:12;12.60;1.00
10276;DHT22;5183;51.190;6.820;2023-11-19T09:24:39;12.60;1.00
10276;DHT22;5183;51.190;6.820;2023-11-19T09:27:06;12.70;1.00
10276;DHT22;5183;51.190;6.820;2023-11-19T09:29:32;12.70;1.00
10276;DHT22;5183;51.190;6.820;2023-11-19T09:31:59;12.80;1.00
10276;DHT22;5183;51.190;6.820;2023-11-19T09:34:26;12.80;1.00
10276;DHT22;5183;51.190;6.820;2023-11-19T09:36:54;12.90;1.00
10276;DHT22;5183;51.190;6.820;2023-11-19T09:39:21;12.90;1.00
10276;DHT22;5183;51.190;6.820;2023-11-19T09:41:48;13.00;1.00
10276;DHT22;5183;51.190;6.820;2023-11-19T09:44:15;13.00;1.00
10276;DHT22;5183;51.190;6.820;2023-11-19T09:46:44;13.00;1.00
10276;DHT22;5183;51.190;6.820;2023-11-19T09:49:12;13.00;1.00
10276;DHT22;5183;51.190;6.820;2023-11-19T09:51:39;12.90;99.90
10276;DHT22;5183;51.190;6.820;2023-11-19T09:54:08;12.90;16.50
10276;DHT22;5183;51.190;6.820;2023-11-19T09:56:36;12.90;1.00
10276;DHT22;5183;51.190;6.820;2023-11-19T09:59:05;12.90;1.00
10276;DHT22;5183;51.190;6.820;2023-11-19T10:01:32;13.00;1.00
10276;DHT22;5183;51.190;6.820;2023-11-19T10:04:01;13.00;1.00
10276;DHT22;5183;51.190;6.820;2023-11-19T10:06:29;13.20;1.00
10276;DHT22;5183;51.190;6.820;2023-11-19T10:08:56;13.20;1.00
10276;DHT22;5183;51.190;6.820;2023-11-19T10:11:24;13.30;1.00
10276;DHT22;5183;51.190;6.820;2023-11-19T10:13:52;13.40;1.00
10276;DHT22;5183;51.190;6.820;2023-11-19T10:16:18;13.40;1.00
10276;DHT22;5183;51.190;6.820;2023-11-19T10:18:46;13.50;1.00
10276;DHT22;5183;51.190;6.820;2023-11-19T10:21:14;13.50;99.90
10276;DHT22;5183;51.190;6.820;2023-11-19T10:23:49;13.50;99.90
10276;DHT22;5183;51.190;6.820;2023-11-19T10:26:17;13.40;99.90
10276;DHT22;5183;51.190;6.820;2023-11-19T10:28:47;13.50;99.90
10276;DHT22;5183;51.190;6.820;2023-11-19T10:31:14;13.50;1.00
10276;DHT22;5183;51.190;6.820;2023-11-19T10:33:41;13.50;99.90
10276;DHT22;5183;51.190;6.820;2023-11-19T10:36:08;13.60;99.90
10276;DHT22;5183;51.190;6.820;2023-11-19T10:38:35;13.60;99.90
10276;DHT22;5183;51.190;6.820;2023-11-19T10:41:02;13.80;99.90
10276;DHT22;5183;51.190;6.820;2023-11-19T10:43:30;13.80;99.90
10276;DHT22;5183;51.190;6.820;2023-11-19T10:46:09;13.70;99.90
10276;DHT22;5183;51.190;6.820;2023-11-19T10:48:36;13.70;99.90
10276;DHT22;5183;51.190;6.820;2023-11-19T10:51:05;13.70;99.90
10276;DHT22;5183;51.190;6.820;2023-11-19T10:53:33;13.70;99.90
10276;DHT22;5183;51.190;6.820;2023-11-19T10:56:02;13.80;99.90
10276;DHT22;5183;51.190;6.820;2023-11-19T10:58:32;13.70;99.90
10276;DHT22;5183;51.190;6.820;2023-11-19T11:01:02;13.90;99.90
10276;DHT22;5183;51.190;6.820;2023-11-19T11:03:37;13.90;99.90
10276;DHT22;5183;51.190;6.820;2023-11-19T11:06:06;14.00;99.90
10276;DHT22;5183;51.190;6.820;2023-11-19T11:08:36;14.10;99.90
10276;DHT22;5183;51.190;6.820;2023-11-19T11:11:04;14.20;99.90
10276;DHT22;5183;51.190;6.820;2023-11-19T11:13:33;14.10;99.90
10276;DHT22;5183;51.190;6.820;2023-11-19T11:16:00;14.10;99.90
10276;DHT22;5183;51.190;6.820;2023-11-19T11:18:31;14.10;76.70
10276;DHT22;5183;51.190;6.820;2023-11-19T11:21:07;14.00;99.90
10276;DHT22;5183;51.190;6.820;2023-11-19T11:24:02;13.80;99.90
10276;DHT22;5183;51.190;6.820;2023-11-19T11:26:54;13.80;99.90
10276;DHT22;5183;51.190;6.820;2023-11-19T11:29:30;13.90;99.90
10276;DHT22;5183;51.190;6.820;2023-11-19T11:32:12;13.90;99.90
10276;DHT22;5183;51.190;6.820;2023-11-19T11:37:45;13.90;99.90
10276;DHT22;5183;51.190;6.820;2023-11-19T11:40:14;13.90;99.90
10276;DHT22;5183;51.190;6.820;2023-11-19T11:42:41;13.90;99.90
10276;DHT22;5183;51.190;6.820;2023-11-19T11:45:09;14.00;99.90
10276;DHT22;5183;51.190;6.820;2023-11-19T11:48:14;14.00;99.90
10276;DHT22;5183;51.190;6.820;2023-11-19T11:50:57;14.10;99.90
10276;DHT22;5183;51.190;6.820;2023-11-19T11:53:26;14.10;99.90
10276;DHT22;5183;51.190;6.820;2023-11-19T11:56:00;14.10;99.90
10276;DHT22;5183;51.190;6.820;2023-11-19T11:58:32;14.10;99.90
10276;DHT22;5183;51.190;6.820;2023-11-19T12:01:03;14.20;90.90
10276;DHT22;5183;51.190;6.820;2023-11-19T12:03:32;14.40;18.60
10276;DHT22;5183;51.190;6.820;2023-11-19T12:05:59;14.40;1.00
10276;DHT22;5183;51.190;6.820;2023-11-19T12:08:29;14.40;1.00
10276;DHT22;5183;51.190;6.820;2023-11-19T12:10:57;14.40;1.00
10276;DHT22;5183;51.190;6.820;2023-11-19T12:13:29;14.40;1.00
10276;DHT22;5183;51.190;6.820;2023-11-19T12:16:10;14.50;1.00
10276;DHT22;5183;51.190;6.820;2023-11-19T12:18:39;14.70;1.00
10276;DHT22;5183;51.190;6.820;2023-11-19T12:21:07;14.70;1.00
10276;DHT22;5183;51.190;6.820;2023-11-19T12:23:45;14.70;1.00
10276;DHT22;5183;51.190;6.820;2023-11-19T12:26:36;14.60;1.00
10276;DHT22;5183;51.190;6.820;2023-11-19T12:29:03;14.60;1.00
10276;DHT22;5183;51.190;6.820;2023-11-19T12:31:32;14.60;1.00
10276;DHT22;5183;51.190;6.820;2023-11-19T12:34:05;14.50;1.00
10276;DHT22;5183;51.190;6.820;2023-11-19T12:36:32;14.40;1.00
10276;DHT22;5183;51.190;6.820;2023-11-19T12:39:00;14.30;1.00
10276;DHT22;5183;51.190;6.820;2023-11-19T12:41:27;14.20;1.00
10276;DHT22;5183;51.190;6.820;2023-11-19T12:44:03;14.20;37.80
10276;DHT22;5183;51.190;6.820;2023-11-19T12:46:35;14.10;53.30
10276;DHT22;5183;51.190;6.820;2023-11-19T12:49:01;14.00;99.90
10276;DHT22;5183;51.190;6.820;2023-11-19T12:51:31;13.60;99.90
10276;DHT22;5183;51.190;6.820;2023-11-19T12:53:59;13.30;99.90
10276;DHT22;5183;51.190;6.820;2023-11-19T12:56:26;13.20;99.90
10276;DHT22;5183;51.190;6.820;2023-11-19T12:58:53;13.20;1.00
10276;DHT22;5183;51.190;6.820;2023-11-19T13:01:20;13.30;1.00
10276;DHT22;5183;51.190;6.820;2023-11-19T13:03:47;13.40;1.00
10276;DHT22;5183;51.190;6.820;2023-11-19T13:06:16;13.50;1.00
10276;DHT22;5183;51.190;6.820;2023-11-19T13:08:48;13.60;1.00
10276;DHT22;5183;51.190;6.820;2023-11-19T13:11:32;13.60;1.00
10276;DHT22;5183;51.190;6.820;2023-11-19T13:14:00;13.60;99.90
10276;DHT22;5183;51.190;6.820;2023-11-19T13:16:30;13.60;99.90
10276;DHT22;5183;51.190;6.820;2023-11-19T13:18:58;13.60;99.90
10276;DHT22;5183;51.190;6.820;2023-11-19T13:21:25;13.60;99.90
10276;DHT22;5183;51.190;6.820;2023-11-19T13:23:52;13.70;99.90
10276;DHT22;5183;51.190;6.820;2023-11-19T13:26:19;13.70;99.90
10276;DHT22;5183;51.190;6.820;2023-11-19T13:28:47;13.80;99.90
10276;DHT22;5183;51.190;6.820;2023-11-19T13:31:15;13.90;99.90
10276;DHT22;5183;51.190;6.820;2023-11-19T13:33:42;14.00;99.90
10276;DHT22;5183;51.190;6.820;2023-11-19T13:36:09;14.10;99.90
10276;DHT22;5183;51.190;6.820;2023-11-19T13:38:36;14.10;99.90
10276;DHT22;5183;51.190;6.820;2023-11-19T13:41:05;14.10;99.90
10276;DHT22;5183;51.190;6.820;2023-11-19T13:43:32;14.10;99.90
10276;DHT22;5183;51.190;6.820;2023-11-19T13:46:00;13.90;99.90
10276;DHT22;5183;51.190;6.820;2023-11-19T13:48:27;13.80;99.90
10276;DHT22;5183;51.190;6.820;2023-11-19T13:50:54;13.80;99.90
10276;DHT22;5183;51.190;6.820;2023-11-19T13:53:21;13.70;99.90
10276;DHT22;5183;51.190;6.820;2023-11-19T13:55:48;13.60;99.90
10276;DHT22;5183;51.190;6.820;2023-11-19T13:58:15;13.60;99.90
10276;DHT22;5183;51.190;6.820;2023-11-19T14:00:42;13.60;99.90
10276;DHT22;5183;51.190;6.820;2023-11-19T14:03:10;13.50;99.90
10276;DHT22;5183;51.190;6.820;2023-11-19T14:05:37;13.50;99.90
10276;DHT22;5183;51.190;6.820;2023-11-19T14:08:04;13.50;99.90
10276;DHT22;5183;51.190;6.820;2023-11-19T14:10:37;13.50;99.90
10276;DHT22;5183;51.190;6.820;2023-11-19T14:13:05;13.40;99.90
10276;DHT22;5183;51.190;6.820;2023-11-19T14:15:32;13.40;99.90
10276;DHT22;5183;51.190;6.820;2023-11-19T14:17:59;13.30;1.00
10276;DHT22;5183;51.190;6.820;2023-11-19T14:20:27;13.20;1.00
10276;DHT22;5183;51.190;6.820;2023-11-19T14:22:54;13.10;1.00
10276;DHT22;5183;51.190;6.820;2023-11-19T14:25:21;12.90;99.90
10276;DHT22;5183;51.190;6.820;2023-11-19T14:27:49;12.80;99.90
10276;DHT22;5183;51.190;6.820;2023-11-19T14:30:16;12.60;1.00
10276;DHT22;5183;51.190;6.820;2023-11-19T14:32:43;12.50;1.00
10276;DHT22;5183;51.190;6.820;2023-11-19T14:35:11;12.30;99.90
10276;DHT22;5183;51.190;6.820;2023-11-19T14:37:39;12.10;99.90
10276;DHT22;5183;51.190;6.820;2023-11-19T14:40:07;11.90;2.20
10276;DHT22;5183;51.190;6.820;2023-11-19T14:42:36;11.80;2.60
10276;DHT22;5183;51.190;6.820;2023-11-19T14:45:05;11.70;1.00
10276;DHT22;5183;51.190;6.820;2023-11-19T14:47:32;11.70;1.00
10276;DHT22;5183;51.190;6.820;2023-11-19T14:49:59;11.60;99.90
10276;DHT22;5183;51.190;6.820;2023-11-19T14:52:26;11.60;99.90
10276;DHT22;5183;51.190;6.820;2023-11-19T14:54:54;11.60;1.00
10276;DHT22;5183;51.190;6.820;2023-11-19T14:57:22;11.50;1.00
10276;DHT22;5183;51.190;6.820;2023-11-19T14:59:49;11.50;1.00
10276;DHT22;5183;51.190;6.820;2023-11-19T15:02:15;11.60;1.00
10276;DHT22;5183;51.190;6.820;2023-11-19T15:04:42;11.60;15.40
10276;DHT22;5183;51.190;6.820;2023-11-19T15:07:10;11.60;1.00
10276;DHT22;5183;51.190;6.820;2023-11-19T15:09:37;11.70;1.00
10276;DHT22;5183;51.190;6.820;2023-11-19T15:12:06;11.60;1.00
10276;DHT22;5183;51.190;6.820;2023-11-19T15:14:34;11.60;1.00
10276;DHT22;5183;51.190;6.820;2023-11-19T15:17:01;11.60;99.90
10276;DHT22;5183;51.190;6.820;2023-11-19T15:19:28;11.60;1.00
10276;DHT22;5183;51.190;6.820;2023-11-19T15:21:54;11.50;99.90
10276;DHT22;5183;51.190;6.820;2023-11-19T15:24:22;11.50;99.90
10276;DHT22;5183;51.190;6.820;2023-11-19T15:26:50;11.40;1.00
10276;DHT22;5183;51.190;6.820;2023-11-19T15:29:19;11.30;99.90
10276;DHT22;5183;51.190;6.820;2023-11-19T15:31:46;11.30;99.90
10276;DHT22;5183;51.190;6.820;2023-11-19T15:34:13;11.30;99.90
10276;DHT22;5183;51.190;6.820;2023-11-19T15:36:40;11.40;99.90
10276;DHT22;5183;51.190;6.820;2023-11-19T15:39:07;11.30;75.70
10276;DHT22;5183;51.190;6.820;2023-11-19T15:41:34;11.30;99.90
10276;DHT22;5183;51.190;6.820;2023-11-19T15:44:01;11.30;99.90
10276;DHT22;5183;51.190;6.820;2023-11-19T15:46:30;11.40;99.90
10276;DHT22;5183;51.190;6.820;2023-11-19T15:48:57;11.40;99.90
10276;DHT22;5183;51.190;6.820;2023-11-19T15:51:24;11.40;99.90
10276;DHT22;5183;51.190;6.820;2023-11-19T15:53:51;11.50;1.00
10276;DHT22;5183;51.190;6.820;2023-11-19T15:56:18;11.40;1.00
10276;DHT22;5183;51.190;6.820;2023-11-19T15:58:45;11.40;99.90